sensor_id;sensor_type;location;lat;lon;timestamp;pressure;altitude;pressure_sealevel;temperature;humidity
9139;BME280;4604;48.616;9.548;2023-03-01T00:00:40;97559.22;;;-1.94;83.92
9139;BME280;4604;48.616;9.548;2023-03-01T00:03:08;97581.44;;;-1.88;84.64
9139;BME280;4604;48.616;9.548;2023-03-01T00:05:34;97576.63;;;-1.99;84.96
9139;BME280;4604;48.616;9.548;2023-03-01T00:08:01;97571.72;;;-2.08;85.35
9139;BME280;4604;48.616;9.548;2023-03-01T00:10:28;97579.25;;;-2.01;84.63
9139;BME280;4604;48.616;9.548;2023-03-01T00:12:54;97588.16;;;-2.11;84.75
9139;BME280;4604;48.616;9.548;2023-03-01T00:15:21;97591.69;;;-2.13;84.69
9139;BME280;4604;48.616;9.548;2023-03-01T00:17:48;97590.34;;;-2.27;85.11
9139;BME280;4604;48.616;9.548;2023-03-01T00:20:16;97597.97;;;-2.22;85.70
9139;BME280;4604;48.616;9.548;2023-03-01T00:22:43;97597.03;;;-2.20;86.02
9139;BME280;4604;48.616;9.548;2023-03-01T00:25:10;97566.28;;;-2.29;86.30
9139;BME280;4604;48.616;9.548;2023-03-01T00:27:36;97585.09;;;-2.24;86.60
9139;BME280;4604;48.616;9.548;2023-03-01T00:30:04;97575.63;;;-2.25;86.83
9139;BME280;4604;48.616;9.548;2023-03-01T00:32:31;97561.91;;;-2.27;86.83
9139;BME280;4604;48.616;9.548;2023-03-01T00:34:57;97573.72;;;-2.18;87.20
9139;BME280;4604;48.616;9.548;2023-03-01T00:37:25;97571.34;;;-2.24;86.68
9139;BME280;4604;48.616;9.548;2023-03-01T00:39:52;97569.72;;;-2.28;86.19
9139;BME280;4604;48.616;9.548;2023-03-01T00:42:19;97570.69;;;-2.32;85.88
9139;BME280;4604;48.616;9.548;2023-03-01T00:44:47;97557.38;;;-2.48;85.88
9139;BME280;4604;48.616;9.548;2023-03-01T00:47:14;97560.19;;;-2.56;86.82
9139;BME280;4604;48.616;9.548;2023-03-01T00:49:40;97578.09;;;-2.51;86.96
9139;BME280;4604;48.616;9.548;2023-03-01T00:52:07;97574.75;;;-2.53;87.17
9139;BME280;4604;48.616;9.548;2023-03-01T00:54:35;97569.69;;;-2.58;87.15
9139;BME280;4604;48.616;9.548;2023-03-01T00:57:02;97578.38;;;-2.61;87.07
9139;BME280;4604;48.616;9.548;2023-03-01T00:59:29;97567.50;;;-2.72;87.11
9139;BME280;4604;48.616;9.548;2023-03-01T01:01:55;97569.94;;;-2.67;87.41
9139;BME280;4604;48.616;9.548;2023-03-01T01:04:22;97543.53;;;-2.77;87.34
9139;BME280;4604;48.616;9.548;2023-03-01T01:06:49;97564.75;;;-2.66;86.84
9139;BME280;4604;48.616;9.548;2023-03-01T01:09:17;97549.44;;;-2.73;86.78
9139;BME280;4604;48.616;9.548;2023-03-01T01:11:46;97556.34;;;-2.74;86.99
9139;BME280;4604;48.616;9.548;2023-03-01T01:14:13;97556.13;;;-2.66;85.83
9139;BME280;4604;48.616;9.548;2023-03-01T01:16:42;97553.50;;;-2.63;87.20
9139;BME280;4604;48.616;9.548;2023-03-01T01:19:10;97535.13;;;-2.54;89.29
9139;BME280;4604;48.616;9.548;2023-03-01T01:21:37;97544.47;;;-2.20;90.47
9139;BME280;4604;48.616;9.548;2023-03-01T01:24:04;97552.28;;;-2.22;91.48
9139;BME280;4604;48.616;9.548;2023-03-01T01:26:33;97551.13;;;-2.11;91.91
9139;BME280;4604;48.616;9.548;2023-03-01T01:29:03;97532.78;;;-2.04;91.37
9139;BME280;4604;48.616;9.548;2023-03-01T01:31:31;97546.75;;;-2.09;91.97
9139;BME280;4604;48.616;9.548;2023-03-01T01:33:58;97540.72;;;-2.10;92.77
9139;BME280;4604;48.616;9.548;2023-03-01T01:36:26;97544.91;;;-2.06;92.93
9139;BME280;4604;48.616;9.548;2023-03-01T01:38:53;97538.94;;;-2.08;92.94
9139;BME280;4604;48.616;9.548;2023-03-01T01:41:20;97537.25;;;-2.09;92.43
9139;BME280;4604;48.616;9.548;2023-03-01T01:43:49;97545.72;;;-2.04;92.14
9139;BME280;4604;48.616;9.548;2023-03-01T01:46:38;97543.94;;;-2.02;91.80
9139;BME280;4604;48.616;9.548;2023-03-01T01:49:10;97537.03;;;-2.01;91.86
9139;BME280;4604;48.616;9.548;2023-03-01T01:51:44;97543.72;;;-1.96;91.50
9139;BME280;4604;48.616;9.548;2023-03-01T01:54:17;97523.38;;;-2.06;91.39
9139;BME280;4604;48.616;9.548;2023-03-01T01:56:49;97529.94;;;-1.95;91.67
9139;BME280;4604;48.616;9.548;2023-03-01T01:59:17;97531.31;;;-1.84;91.65
9139;BME280;4604;48.616;9.548;2023-03-01T02:01:45;97529.56;;;-1.84;92.07
9139;BME280;4604;48.616;9.548;2023-03-01T02:04:12;97518.16;;;-1.77;92.23
9139;BME280;4604;48.616;9.548;2023-03-01T02:06:44;97516.31;;;-1.73;91.64
9139;BME280;4604;48.616;9.548;2023-03-01T02:09:16;97520.34;;;-1.64;91.59
9139;BME280;4604;48.616;9.548;2023-03-01T02:11:45;97501.69;;;-1.74;91.53
9139;BME280;4604;48.616;9.548;2023-03-01T02:14:11;97510.28;;;-1.74;91.27
9139;BME280;4604;48.616;9.548;2023-03-01T02:16:38;97509.88;;;-1.61;91.49
9139;BME280;4604;48.616;9.548;2023-03-01T02:19:07;97499.75;;;-1.67;92.04
9139;BME280;4604;48.616;9.548;2023-03-01T02:21:41;97504.66;;;-1.60;92.29
9139;BME280;4604;48.616;9.548;2023-03-01T02:24:20;97497.59;;;-1.55;92.38
9139;BME280;4604;48.616;9.548;2023-03-01T02:26:55;97492.31;;;-1.52;92.21
9139;BME280;4604;48.616;9.548;2023-03-01T02:29:24;97498.09;;;-1.43;91.99
9139;BME280;4604;48.616;9.548;2023-03-01T02:31:52;97495.44;;;-1.42;91.80
9139;BME280;4604;48.616;9.548;2023-03-01T02:34:23;97485.94;;;-1.41;91.95
9139;BME280;4604;48.616;9.548;2023-03-01T02:36:55;97482.13;;;-1.31;91.65
9139;BME280;4604;48.616;9.548;2023-03-01T02:39:26;97485.41;;;-1.26;91.64
9139;BME280;4604;48.616;9.548;2023-03-01T02:41:54;97472.31;;;-1.21;91.46
9139;BME280;4604;48.616;9.548;2023-03-01T02:44:21;97477.06;;;-1.09;90.27
9139;BME280;4604;48.616;9.548;2023-03-01T02:46:51;97477.81;;;-0.82;88.01
9139;BME280;4604;48.616;9.548;2023-03-01T02:49:24;97478.66;;;-0.58;85.93
9139;BME280;4604;48.616;9.548;2023-03-01T02:52:27;97480.16;;;-0.76;86.99
9139;BME280;4604;48.616;9.548;2023-03-01T02:55:01;97481.75;;;-0.72;86.88
9139;BME280;4604;48.616;9.548;2023-03-01T02:57:32;97458.88;;;-0.84;86.61
9139;BME280;4604;48.616;9.548;2023-03-01T03:00:03;97472.22;;;-0.71;86.40
9139;BME280;4604;48.616;9.548;2023-03-01T03:02:35;97460.75;;;-0.64;85.30
9139;BME280;4604;48.616;9.548;2023-03-01T03:05:07;97457.94;;;-0.81;86.68
9139;BME280;4604;48.616;9.548;2023-03-01T03:07:35;97459.94;;;-0.66;86.26
9139;BME280;4604;48.616;9.548;2023-03-01T03:10:03;97457.88;;;-0.80;87.24
9139;BME280;4604;48.616;9.548;2023-03-01T03:12:30;97451.41;;;-0.68;86.47
9139;BME280;4604;48.616;9.548;2023-03-01T03:14:57;97440.03;;;-0.88;87.47
9139;BME280;4604;48.616;9.548;2023-03-01T03:17:23;97454.03;;;-0.93;88.27
9139;BME280;4604;48.616;9.548;2023-03-01T03:19:51;97433.47;;;-0.98;88.98
9139;BME280;4604;48.616;9.548;2023-03-01T03:22:18;97441.31;;;-0.99;89.99
9139;BME280;4604;48.616;9.548;2023-03-01T03:24:45;97450.72;;;-0.97;90.05
9139;BME280;4604;48.616;9.548;2023-03-01T03:27:11;97447.19;;;-0.94;90.46
9139;BME280;4604;48.616;9.548;2023-03-01T03:29:38;97445.66;;;-1.00;90.92
9139;BME280;4604;48.616;9.548;2023-03-01T03:32:05;97454.94;;;-0.94;90.93
9139;BME280;4604;48.616;9.548;2023-03-01T03:34:32;97436.69;;;-0.91;90.82
9139;BME280;4604;48.616;9.548;2023-03-01T03:37:00;97442.63;;;-0.88;90.63
9139;BME280;4604;48.616;9.548;2023-03-01T03:39:27;97435.91;;;-0.93;91.40
9139;BME280;4604;48.616;9.548;2023-03-01T03:42:00;97427.00;;;-0.86;90.90
9139;BME280;4604;48.616;9.548;2023-03-01T03:44:27;97432.97;;;-0.84;90.60
9139;BME280;4604;48.616;9.548;2023-03-01T03:46:53;97418.38;;;-0.87;90.42
9139;BME280;4604;48.616;9.548;2023-03-01T03:49:20;97437.00;;;-0.75;90.24
9139;BME280;4604;48.616;9.548;2023-03-01T03:51:47;97430.09;;;-0.76;90.14
9139;BME280;4604;48.616;9.548;2023-03-01T03:54:15;97430.94;;;-0.76;90.42
9139;BME280;4604;48.616;9.548;2023-03-01T03:56:42;97426.84;;;-0.81;90.76
9139;BME280;4604;48.616;9.548;2023-03-01T03:59:09;97423.91;;;-0.72;89.98
9139;BME280;4604;48.616;9.548;2023-03-01T04:01:36;97431.06;;;-0.55;88.43
9139;BME280;4604;48.616;9.548;2023-03-01T04:04:03;97420.09;;;-0.63;88.99
9139;BME280;4604;48.616;9.548;2023-03-01T04:06:30;97407.06;;;-0.60;87.87
9139;BME280;4604;48.616;9.548;2023-03-01T04:08:57;97426.06;;;-0.38;86.33
9139;BME280;4604;48.616;9.548;2023-03-01T04:11:27;97412.47;;;-0.45;86.58
9139;BME280;4604;48.616;9.548;2023-03-01T04:13:55;97418.00;;;-0.54;87.41
9139;BME280;4604;48.616;9.548;2023-03-01T04:16:23;97415.72;;;-0.61;87.95
9139;BME280;4604;48.616;9.548;2023-03-01T04:18:50;97417.16;;;-0.54;87.76
9139;BME280;4604;48.616;9.548;2023-03-01T04:21:19;97417.13;;;-0.53;87.37
9139;BME280;4604;48.616;9.548;2023-03-01T04:23:45;97410.06;;;-0.49;87.44
9139;BME280;4604;48.616;9.548;2023-03-01T04:26:12;97411.31;;;-0.59;88.15
9139;BME280;4604;48.616;9.548;2023-03-01T04:28:42;97398.94;;;-0.75;88.54
9139;BME280;4604;48.616;9.548;2023-03-01T04:31:12;97405.81;;;-0.74;88.99
9139;BME280;4604;48.616;9.548;2023-03-01T04:33:44;97414.09;;;-0.42;87.61
9139;BME280;4604;48.616;9.548;2023-03-01T04:36:11;97401.41;;;-0.48;87.01
9139;BME280;4604;48.616;9.548;2023-03-01T04:38:39;97411.41;;;-0.39;87.04
9139;BME280;4604;48.616;9.548;2023-03-01T04:41:07;97405.75;;;-0.49;87.35
9139;BME280;4604;48.616;9.548;2023-03-01T04:43:35;97388.84;;;-0.59;87.80
9139;BME280;4604;48.616;9.548;2023-03-01T04:46:05;97401.56;;;-0.53;87.82
9139;BME280;4604;48.616;9.548;2023-03-01T04:48:34;97409.38;;;-0.54;88.76
9139;BME280;4604;48.616;9.548;2023-03-01T04:51:01;97400.25;;;-0.63;89.01
9139;BME280;4604;48.616;9.548;2023-03-01T04:53:29;97396.03;;;-0.66;89.98
9139;BME280;4604;48.616;9.548;2023-03-01T04:55:56;97383.31;;;-0.73;89.97
9139;BME280;4604;48.616;9.548;2023-03-01T04:58:23;97405.31;;;-0.60;90.35
9139;BME280;4604;48.616;9.548;2023-03-01T05:00:50;97414.91;;;-0.63;91.00
9139;BME280;4604;48.616;9.548;2023-03-01T05:03:20;97400.16;;;-0.61;91.31
9139;BME280;4604;48.616;9.548;2023-03-01T05:05:48;97409.88;;;-0.67;91.36
9139;BME280;4604;48.616;9.548;2023-03-01T05:08:15;97403.88;;;-0.69;91.91
9139;BME280;4604;48.616;9.548;2023-03-01T05:10:45;97401.28;;;-0.69;92.30
9139;BME280;4604;48.616;9.548;2023-03-01T05:13:13;97407.06;;;-0.60;92.19
9139;BME280;4604;48.616;9.548;2023-03-01T05:15:40;97405.75;;;-0.27;89.40
9139;BME280;4604;48.616;9.548;2023-03-01T05:18:07;97392.03;;;-0.52;88.89
9139;BME280;4604;48.616;9.548;2023-03-01T05:20:38;97400.16;;;-0.17;86.99
9139;BME280;4604;48.616;9.548;2023-03-01T05:23:05;97396.69;;;-0.16;85.89
9139;BME280;4604;48.616;9.548;2023-03-01T05:25:33;97386.44;;;-0.19;85.25
9139;BME280;4604;48.616;9.548;2023-03-01T05:28:06;97396.41;;;-0.10;85.18
9139;BME280;4604;48.616;9.548;2023-03-01T05:30:34;97377.28;;;-0.50;86.64
9139;BME280;4604;48.616;9.548;2023-03-01T05:33:02;97393.53;;;-0.47;87.93
9139;BME280;4604;48.616;9.548;2023-03-01T05:35:29;97390.38;;;-0.53;88.80
9139;BME280;4604;48.616;9.548;2023-03-01T05:37:59;97399.81;;;-0.52;88.88
9139;BME280;4604;48.616;9.548;2023-03-01T05:40:25;97384.56;;;-0.60;88.94
9139;BME280;4604;48.616;9.548;2023-03-01T05:42:53;97402.41;;;-0.52;89.57
9139;BME280;4604;48.616;9.548;2023-03-01T05:45:21;97402.78;;;-0.39;89.08
9139;BME280;4604;48.616;9.548;2023-03-01T05:47:48;97371.97;;;-0.47;87.59
9139;BME280;4604;48.616;9.548;2023-03-01T05:50:17;97395.72;;;-0.36;88.12
9139;BME280;4604;48.616;9.548;2023-03-01T05:52:46;97399.19;;;-0.15;86.68
9139;BME280;4604;48.616;9.548;2023-03-01T05:55:15;97390.41;;;-0.33;86.47
9139;BME280;4604;48.616;9.548;2023-03-01T05:57:43;97398.31;;;-0.36;87.46
9139;BME280;4604;48.616;9.548;2023-03-01T06:00:11;97381.84;;;-0.35;87.01
9139;BME280;4604;48.616;9.548;2023-03-01T06:02:38;97396.56;;;-0.35;86.77
9139;BME280;4604;48.616;9.548;2023-03-01T06:05:06;97385.19;;;-0.53;87.52
9139;BME280;4604;48.616;9.548;2023-03-01T06:07:33;97395.66;;;-0.34;85.86
9139;BME280;4604;48.616;9.548;2023-03-01T06:10:00;97400.59;;;-0.28;85.43
9139;BME280;4604;48.616;9.548;2023-03-01T06:12:31;97400.72;;;-0.31;85.75
9139;BME280;4604;48.616;9.548;2023-03-01T06:14:58;97389.94;;;-0.43;85.93
9139;BME280;4604;48.616;9.548;2023-03-01T06:17:25;97393.25;;;-0.61;87.71
9139;BME280;4604;48.616;9.548;2023-03-01T06:19:51;97391.31;;;-0.56;87.43
9139;BME280;4604;48.616;9.548;2023-03-01T06:22:18;97391.09;;;-0.73;88.62
9139;BME280;4604;48.616;9.548;2023-03-01T06:24:45;97395.84;;;-0.61;88.26
9139;BME280;4604;48.616;9.548;2023-03-01T06:27:11;97393.31;;;-0.62;88.13
9139;BME280;4604;48.616;9.548;2023-03-01T06:29:39;97388.41;;;-0.70;88.23
9139;BME280;4604;48.616;9.548;2023-03-01T06:32:06;97390.44;;;-0.78;89.39
9139;BME280;4604;48.616;9.548;2023-03-01T06:34:33;97392.75;;;-0.71;89.00
9139;BME280;4604;48.616;9.548;2023-03-01T06:37:00;97388.25;;;-0.66;88.56
9139;BME280;4604;48.616;9.548;2023-03-01T06:39:30;97400.28;;;-0.65;88.51
9139;BME280;4604;48.616;9.548;2023-03-01T06:41:57;97402.34;;;-0.73;89.42
9139;BME280;4604;48.616;9.548;2023-03-01T06:44:23;97397.81;;;-0.68;89.11
9139;BME280;4604;48.616;9.548;2023-03-01T06:46:51;97393.31;;;-0.86;90.18
9139;BME280;4604;48.616;9.548;2023-03-01T06:49:18;97379.06;;;-0.98;91.09
9139;BME280;4604;48.616;9.548;2023-03-01T06:51:45;97390.25;;;-0.74;90.07
9139;BME280;4604;48.616;9.548;2023-03-01T06:54:12;97391.59;;;-0.63;88.92
9139;BME280;4604;48.616;9.548;2023-03-01T06:56:39;97392.34;;;-0.60;88.57
9139;BME280;4604;48.616;9.548;2023-03-01T06:59:06;97385.47;;;-0.39;86.90
9139;BME280;4604;48.616;9.548;2023-03-01T07:01:32;97392.22;;;-0.57;88.15
9139;BME280;4604;48.616;9.548;2023-03-01T07:04:00;97392.38;;;-0.61;88.87
9139;BME280;4604;48.616;9.548;2023-03-01T07:06:27;97375.59;;;-0.51;87.51
9139;BME280;4604;48.616;9.548;2023-03-01T07:08:54;97384.59;;;-0.17;85.83
9139;BME280;4604;48.616;9.548;2023-03-01T07:11:20;97376.59;;;-0.11;84.43
9139;BME280;4604;48.616;9.548;2023-03-01T07:13:47;97377.78;;;-0.20;85.29
9139;BME280;4604;48.616;9.548;2023-03-01T07:16:14;97371.91;;;-0.24;86.18
9139;BME280;4604;48.616;9.548;2023-03-01T07:18:41;97377.91;;;-0.01;83.96
9139;BME280;4604;48.616;9.548;2023-03-01T07:21:13;97378.41;;;-0.13;85.46
9139;BME280;4604;48.616;9.548;2023-03-01T07:23:40;97373.81;;;0.14;83.39
9139;BME280;4604;48.616;9.548;2023-03-01T07:26:07;97372.97;;;0.13;82.89
9139;BME280;4604;48.616;9.548;2023-03-01T07:28:34;97378.88;;;-0.04;84.70
9139;BME280;4604;48.616;9.548;2023-03-01T07:31:04;97357.41;;;0.13;83.56
9139;BME280;4604;48.616;9.548;2023-03-01T07:33:31;97375.56;;;0.34;81.51
9139;BME280;4604;48.616;9.548;2023-03-01T07:35:59;97367.13;;;0.29;82.39
9139;BME280;4604;48.616;9.548;2023-03-01T07:38:28;97359.94;;;0.35;81.57
9139;BME280;4604;48.616;9.548;2023-03-01T07:40:58;97359.16;;;0.13;82.93
9139;BME280;4604;48.616;9.548;2023-03-01T07:43:25;97353.19;;;0.11;83.66
9139;BME280;4604;48.616;9.548;2023-03-01T07:45:52;97354.94;;;0.31;83.73
9139;BME280;4604;48.616;9.548;2023-03-01T07:48:18;97350.84;;;0.46;81.31
9139;BME280;4604;48.616;9.548;2023-03-01T07:50:45;97347.84;;;0.55;81.31
9139;BME280;4604;48.616;9.548;2023-03-01T07:53:12;97348.00;;;0.71;80.26
9139;BME280;4604;48.616;9.548;2023-03-01T07:55:40;97333.94;;;0.56;81.17
9139;BME280;4604;48.616;9.548;2023-03-01T07:58:07;97342.53;;;0.77;80.29
9139;BME280;4604;48.616;9.548;2023-03-01T08:00:34;97331.22;;;0.78;80.60
9139;BME280;4604;48.616;9.548;2023-03-01T08:03:01;97340.75;;;0.98;78.68
9139;BME280;4604;48.616;9.548;2023-03-01T08:05:28;97338.34;;;0.93;79.46
9139;BME280;4604;48.616;9.548;2023-03-01T08:07:55;97331.97;;;1.00;78.55
9139;BME280;4604;48.616;9.548;2023-03-01T08:10:22;97343.41;;;1.15;77.24
9139;BME280;4604;48.616;9.548;2023-03-01T08:12:52;97343.88;;;1.23;77.29
9139;BME280;4604;48.616;9.548;2023-03-01T08:15:19;97339.25;;;1.30;76.05
9139;BME280;4604;48.616;9.548;2023-03-01T08:17:48;97339.06;;;1.16;76.98
9139;BME280;4604;48.616;9.548;2023-03-01T08:20:15;97340.94;;;1.12;78.22
9139;BME280;4604;48.616;9.548;2023-03-01T08:22:42;97325.31;;;1.31;77.24
9139;BME280;4604;48.616;9.548;2023-03-01T08:25:09;97329.25;;;1.40;77.67
9139;BME280;4604;48.616;9.548;2023-03-01T08:27:35;97332.19;;;1.51;76.57
9139;BME280;4604;48.616;9.548;2023-03-01T08:30:04;97327.34;;;1.43;76.36
9139;BME280;4604;48.616;9.548;2023-03-01T08:32:36;97308.13;;;1.28;77.79
9139;BME280;4604;48.616;9.548;2023-03-01T08:35:03;97328.53;;;1.55;75.68
9139;BME280;4604;48.616;9.548;2023-03-01T08:37:29;97316.97;;;1.61;76.09
9139;BME280;4604;48.616;9.548;2023-03-01T08:39:58;97324.81;;;1.78;73.30
9139;BME280;4604;48.616;9.548;2023-03-01T08:42:25;97318.06;;;1.74;74.89
9139;BME280;4604;48.616;9.548;2023-03-01T08:44:52;97321.75;;;1.87;73.53
9139;BME280;4604;48.616;9.548;2023-03-01T08:47:20;97322.00;;;2.18;72.32
9139;BME280;4604;48.616;9.548;2023-03-01T08:49:46;97320.00;;;2.23;70.68
9139;BME280;4604;48.616;9.548;2023-03-01T08:52:13;97306.50;;;2.32;70.71
9139;BME280;4604;48.616;9.548;2023-03-01T08:54:40;97303.28;;;2.44;70.46
9139;BME280;4604;48.616;9.548;2023-03-01T08:57:06;97316.56;;;2.55;70.34
9139;BME280;4604;48.616;9.548;2023-03-01T08:59:34;97299.63;;;2.64;68.86
9139;BME280;4604;48.616;9.548;2023-03-01T09:02:02;97305.44;;;2.69;69.04
9139;BME280;4604;48.616;9.548;2023-03-01T09:04:30;97310.16;;;2.94;68.01
9139;BME280;4604;48.616;9.548;2023-03-01T09:06:58;97300.56;;;2.95;67.47
9139;BME280;4604;48.616;9.548;2023-03-01T09:09:25;97297.66;;;3.01;67.86
9139;BME280;4604;48.616;9.548;2023-03-01T09:11:51;97300.66;;;3.09;65.74
9139;BME280;4604;48.616;9.548;2023-03-01T09:14:18;97275.00;;;3.02;66.29
9139;BME280;4604;48.616;9.548;2023-03-01T09:16:45;97275.69;;;3.21;64.59
9139;BME280;4604;48.616;9.548;2023-03-01T09:19:12;97302.59;;;3.37;63.37
9139;BME280;4604;48.616;9.548;2023-03-01T09:21:41;97290.59;;;3.65;61.50
9139;BME280;4604;48.616;9.548;2023-03-01T09:24:18;97287.41;;;3.60;63.02
9139;BME280;4604;48.616;9.548;2023-03-01T09:26:46;97280.09;;;3.67;62.31
9139;BME280;4604;48.616;9.548;2023-03-01T09:29:13;97269.69;;;3.81;62.82
9139;BME280;4604;48.616;9.548;2023-03-01T09:31:40;97267.69;;;4.00;59.94
9139;BME280;4604;48.616;9.548;2023-03-01T09:34:08;97277.13;;;4.03;61.15
9139;BME280;4604;48.616;9.548;2023-03-01T09:36:35;97278.81;;;4.18;61.16
9139;BME280;4604;48.616;9.548;2023-03-01T09:39:04;97271.09;;;4.31;59.03
9139;BME280;4604;48.616;9.548;2023-03-01T09:41:58;97256.69;;;4.10;59.42
9139;BME280;4604;48.616;9.548;2023-03-01T09:44:38;97273.25;;;4.24;60.00
9139;BME280;4604;48.616;9.548;2023-03-01T09:47:12;97261.00;;;4.25;59.83
9139;BME280;4604;48.616;9.548;2023-03-01T09:49:43;97259.59;;;4.34;59.16
9139;BME280;4604;48.616;9.548;2023-03-01T09:52:21;97256.25;;;4.46;57.76
9139;BME280;4604;48.616;9.548;2023-03-01T09:54:54;97253.38;;;4.22;58.52
9139;BME280;4604;48.616;9.548;2023-03-01T09:57:28;97259.53;;;4.35;58.05
9139;BME280;4604;48.616;9.548;2023-03-01T10:00:03;97268.28;;;4.20;59.14
9139;BME280;4604;48.616;9.548;2023-03-01T10:02:39;97253.94;;;4.27;58.38
9139;BME280;4604;48.616;9.548;2023-03-01T10:05:21;97258.97;;;4.59;57.02
9139;BME280;4604;48.616;9.548;2023-03-01T10:07:57;97250.84;;;4.49;58.37
9139;BME280;4604;48.616;9.548;2023-03-01T10:10:33;97246.75;;;4.59;58.45
9139;BME280;4604;48.616;9.548;2023-03-01T10:13:08;97238.97;;;4.72;58.59
9139;BME280;4604;48.616;9.548;2023-03-01T10:15:41;97242.31;;;4.88;58.38
9139;BME280;4604;48.616;9.548;2023-03-01T10:18:12;97226.78;;;5.00;58.34
9139;BME280;4604;48.616;9.548;2023-03-01T10:20:45;97228.56;;;4.99;57.86
9139;BME280;4604;48.616;9.548;2023-03-01T10:23:13;97226.06;;;4.98;56.84
9139;BME280;4604;48.616;9.548;2023-03-01T10:25:52;97232.91;;;5.13;54.80
9139;BME280;4604;48.616;9.548;2023-03-01T10:28:26;97244.00;;;5.17;56.84
9139;BME280;4604;48.616;9.548;2023-03-01T10:30:57;97235.25;;;5.18;56.92
9139;BME280;4604;48.616;9.548;2023-03-01T10:33:27;97231.63;;;5.33;56.40
9139;BME280;4604;48.616;9.548;2023-03-01T10:35:55;97220.66;;;5.41;55.52
9139;BME280;4604;48.616;9.548;2023-03-01T10:38:22;97227.09;;;5.49;56.15
9139;BME280;4604;48.616;9.548;2023-03-01T10:40:55;97218.53;;;5.60;55.43
9139;BME280;4604;48.616;9.548;2023-03-01T10:43:24;97225.47;;;5.61;54.95
9139;BME280;4604;48.616;9.548;2023-03-01T10:45:52;97220.00;;;5.64;54.32
9139;BME280;4604;48.616;9.548;2023-03-01T10:48:20;97212.53;;;5.58;55.94
9139;BME280;4604;48.616;9.548;2023-03-01T10:50:51;97215.09;;;5.72;54.37
9139;BME280;4604;48.616;9.548;2023-03-01T10:53:32;97199.50;;;5.44;54.65
9139;BME280;4604;48.616;9.548;2023-03-01T10:56:03;97194.69;;;5.38;54.37
9139;BME280;4604;48.616;9.548;2023-03-01T10:58:32;97201.81;;;5.35;55.67
9139;BME280;4604;48.616;9.548;2023-03-01T11:01:00;97193.88;;;5.37;54.65
9139;BME280;4604;48.616;9.548;2023-03-01T11:03:29;97185.09;;;5.51;55.96
9139;BME280;4604;48.616;9.548;2023-03-01T11:06:02;97187.03;;;5.87;55.16
9139;BME280;4604;48.616;9.548;2023-03-01T11:08:48;97175.50;;;5.90;56.09
9139;BME280;4604;48.616;9.548;2023-03-01T11:11:29;97182.59;;;6.15;53.93
9139;BME280;4604;48.616;9.548;2023-03-01T11:13:59;97187.38;;;6.21;53.86
9139;BME280;4604;48.616;9.548;2023-03-01T11:16:29;97170.28;;;6.41;53.43
9139;BME280;4604;48.616;9.548;2023-03-01T11:18:59;97179.84;;;6.42;53.05
9139;BME280;4604;48.616;9.548;2023-03-01T11:21:28;97166.69;;;6.55;52.85
9139;BME280;4604;48.616;9.548;2023-03-01T11:23:59;97165.03;;;6.54;53.22
9139;BME280;4604;48.616;9.548;2023-03-01T11:26:30;97144.00;;;6.67;53.04
9139;BME280;4604;48.616;9.548;2023-03-01T11:29:01;97147.47;;;6.67;52.39
9139;BME280;4604;48.616;9.548;2023-03-01T11:31:30;97159.78;;;6.78;52.16
9139;BME280;4604;48.616;9.548;2023-03-01T11:34:05;97154.22;;;6.58;52.32
9139;BME280;4604;48.616;9.548;2023-03-01T11:36:41;97154.44;;;6.79;52.63
9139;BME280;4604;48.616;9.548;2023-03-01T11:39:20;97139.78;;;7.01;51.32
9139;BME280;4604;48.616;9.548;2023-03-01T11:41:59;97134.81;;;6.85;51.56
9139;BME280;4604;48.616;9.548;2023-03-01T11:44:29;97139.28;;;6.72;52.87
9139;BME280;4604;48.616;9.548;2023-03-01T11:47:18;97133.91;;;6.97;51.58
9139;BME280;4604;48.616;9.548;2023-03-01T11:50:10;97126.84;;;7.11;51.25
9139;BME280;4604;48.616;9.548;2023-03-01T11:52:48;97130.69;;;6.94;52.35
9139;BME280;4604;48.616;9.548;2023-03-01T11:55:27;97127.41;;;7.03;50.49
9139;BME280;4604;48.616;9.548;2023-03-01T11:58:16;97118.53;;;6.93;50.82
9139;BME280;4604;48.616;9.548;2023-03-01T12:01:01;97117.66;;;6.92;52.74
9139;BME280;4604;48.616;9.548;2023-03-01T12:03:45;97112.16;;;6.84;51.69
9139;BME280;4604;48.616;9.548;2023-03-01T12:06:37;97102.94;;;6.78;51.64
9139;BME280;4604;48.616;9.548;2023-03-01T12:09:20;97095.19;;;6.77;51.71
9139;BME280;4604;48.616;9.548;2023-03-01T12:12:01;97094.41;;;6.63;51.85
9139;BME280;4604;48.616;9.548;2023-03-01T12:14:57;97076.59;;;6.56;51.79
9139;BME280;4604;48.616;9.548;2023-03-01T12:17:43;97075.09;;;6.89;54.04
9139;BME280;4604;48.616;9.548;2023-03-01T12:20:20;97063.78;;;6.88;51.18
9139;BME280;4604;48.616;9.548;2023-03-01T12:23:02;97073.56;;;6.97;51.34
9139;BME280;4604;48.616;9.548;2023-03-01T12:25:41;97070.25;;;6.95;51.56
9139;BME280;4604;48.616;9.548;2023-03-01T12:28:45;97061.56;;;7.06;51.41
9139;BME280;4604;48.616;9.548;2023-03-01T12:31:46;97060.97;;;7.02;50.64
9139;BME280;4604;48.616;9.548;2023-03-01T12:34:29;97048.00;;;7.12;50.60
9139;BME280;4604;48.616;9.548;2023-03-01T12:37:21;97050.19;;;7.29;50.86
9139;BME280;4604;48.616;9.548;2023-03-01T12:40:01;97031.88;;;7.17;50.99
9139;BME280;4604;48.616;9.548;2023-03-01T12:42:34;97040.41;;;7.32;50.66
9139;BME280;4604;48.616;9.548;2023-03-01T12:45:32;97031.78;;;7.18;50.65
9139;BME280;4604;48.616;9.548;2023-03-01T12:48:26;97026.91;;;7.36;49.91
9139;BME280;4604;48.616;9.548;2023-03-01T12:51:01;97018.69;;;7.29;50.17
9139;BME280;4604;48.616;9.548;2023-03-01T12:53:31;97021.59;;;7.49;51.26
9139;BME280;4604;48.616;9.548;2023-03-01T12:56:01;97005.72;;;7.73;50.55
9139;BME280;4604;48.616;9.548;2023-03-01T12:58:32;97013.22;;;7.66;48.59
9139;BME280;4604;48.616;9.548;2023-03-01T13:01:10;97004.06;;;7.61;50.38
9139;BME280;4604;48.616;9.548;2023-03-01T13:06:44;97004.63;;;7.87;50.15
9139;BME280;4604;48.616;9.548;2023-03-01T13:09:20;97004.97;;;7.93;49.77
9139;BME280;4604;48.616;9.548;2023-03-01T13:11:51;96989.00;;;7.74;49.46
9139;BME280;4604;48.616;9.548;2023-03-01T13:14:37;97007.38;;;7.85;50.74
9139;BME280;4604;48.616;9.548;2023-03-01T13:17:32;97009.06;;;7.98;49.16
9139;BME280;4604;48.616;9.548;2023-03-01T13:20:13;96993.41;;;7.62;49.89
9139;BME280;4604;48.616;9.548;2023-03-01T13:22:39;96998.66;;;7.85;51.81
9139;BME280;4604;48.616;9.548;2023-03-01T13:25:16;96994.72;;;7.79;51.72
9139;BME280;4604;48.616;9.548;2023-03-01T13:27:43;96988.50;;;8.03;50.29
9139;BME280;4604;48.616;9.548;2023-03-01T13:30:39;96992.16;;;8.11;49.41
9139;BME280;4604;48.616;9.548;2023-03-01T13:33:37;96991.81;;;8.16;48.63
9139;BME280;4604;48.616;9.548;2023-03-01T13:36:08;96991.69;;;8.06;48.67
9139;BME280;4604;48.616;9.548;2023-03-01T13:38:38;96989.69;;;8.10;48.93
9139;BME280;4604;48.616;9.548;2023-03-01T13:41:05;96990.97;;;8.04;50.20
9139;BME280;4604;48.616;9.548;2023-03-01T13:43:34;96991.22;;;8.12;49.65
9139;BME280;4604;48.616;9.548;2023-03-01T13:46:08;96987.25;;;8.29;49.84
9139;BME280;4604;48.616;9.548;2023-03-01T13:48:38;96985.56;;;8.28;49.28